Report METAR

 

KSJC - San Jose, California, USA
Distance from station: NE 14km
Dati ricevuti: 23/01/2022 18:53
Few Clouds
Few Clouds
 Vento da SSE
Vento: SSE 6 km/h
Temperatura: 11°C
P.to Rugiada: 3°C
Umidità: 58%
Barometro: 1025.4 hPa
Nuvole: Few Clouds
Visibility: 16 km
Cloud details: Few Clouds 305 m
Few Clouds 1829 m
2022/01/23 17:53 KSJC 231753Z 15003KT 10SM FEW010 FEW060 11/03 A3028 RMK AO2 SLP252 T01110028 10111 20028 51006
KNUQ - Moffett Nas/Mtn, California, USA
Distance from station: N 14km
Dati ricevuti: 23/01/2022 18:50
Sereno
Sereno
 Vento da calmo
Vento: Calma
Temperatura: 11°C
P.to Rugiada: 2°C
Umidità: 54%
Barometro: 1025.4 hPa
Nuvole: Sereno
Visibility: 16 km
2022/01/23 17:50 KNUQ 231750Z AUTO 00000KT 10SM CLR 11/02 A3028 RMK AO2
 
KPAO - Palo Alto, California, USA
Distance from station: NNO 23km
Dati ricevuti: 23/01/2022 16:47
DATI Obsoleti
Sereno
Sereno
 Vento da calmo
Vento: Calma
Temperatura: 2°C
P.to Rugiada: 1°C
Umidità: 93%
Barometro: 1025.1 hPa
Nuvole: Sereno
Visibility: 16 km
2022/01/23 15:47 KPAO 231547Z 00000KT 10SM SKC 02/01 A3027
KRHV - San Jose/Reid, California, USA
Distance from station: ENE 19km
Dati ricevuti: 23/01/2022 18:47
Sereno
Sereno
 Vento da calmo
Vento: Calma
Temperatura: 10°C
P.to Rugiada: 1°C
Umidità: 54%
Barometro: 1025.4 hPa
Nuvole: Sereno
Visibility: 16 km
2022/01/23 17:47 KRHV 231747Z 00000KT 10SM SKC 10/01 A3028
 
KOAK - Oakland, California, USA
Distance from station: NNO 50km
Dati ricevuti: 23/01/2022 18:53
Sereno
Sereno
 Vento da SO
Vento: SO 7 km/h
Temperatura: 11°C
P.to Rugiada: 6°C
Umidità: 72%
Barometro: 1026.1 hPa
Nuvole: Sereno
Visibility: 16 km
2022/01/23 17:53 KOAK 231753Z 22004KT 10SM CLR 11/06 A3030 RMK AO2 SLP259 T01110061 10111 20050 53010 $
KSQL - San Carlos Airpo, California, USA
Distance from station: NO 34km
Dati ricevuti: 23/01/2022 18:50
Sereno
Sereno
 Vento da calmo
Vento: Calma
Temperatura: 10°C
P.to Rugiada: 4°C
Umidità: 67%
Barometro: 1026.1 hPa
Nuvole: Sereno
Visibility: 16 km
2022/01/23 17:50 KSQL 231750Z 00000KT 10SM CLR 10/04 A3030
 
KSFO - San Francisco, California, USA
Distance from station: NO 49km
Dati ricevuti: 23/01/2022 18:56
Few Clouds
Few Clouds
 Vento da calmo
Vento: Calma
Temperatura: 11°C
P.to Rugiada: 4°C
Umidità: 62%
Barometro: 1025.7 hPa
Nuvole: Few Clouds
Visibility: 16 km
Cloud details: Few Clouds 6096 m
2022/01/23 17:56 KSFO 231756Z 00000KT 10SM FEW200 11/04 A3029 RMK AO2 SLP256 T01110044 10111 20061 53012
KE16 - San Martin, California, USA
Distance from station: ESE 43km
Dati ricevuti: 23/01/2022 18:50
Sereno
Sereno
 Vento da calmo
Vento: Calma
Temperatura: 7°C
P.to Rugiada: 3°C
Umidità: 76%
Barometro: 1026.4 hPa
Nuvole: Sereno
Visibility: 16 km
2022/01/23 17:50 KE16 231750Z AUTO 00000KT 10SM CLR 07/03 A3031 RMK AO2 PWINO PNO
 
KWVI - Watsonville, California, USA
Distance from station: SSE 44km
Dati ricevuti: 23/01/2022 18:53
Sereno
Sereno
 Vento da calmo
Vento: Calma
Temperatura: 10°C
P.to Rugiada: 4°C
Umidità: 67%
Barometro: 1025.4 hPa
Nuvole: Sereno
Visibility: 16 km
2022/01/23 17:53 KWVI 231753Z AUTO 00000KT 10SM CLR 10/04 A3028 RMK AO2 SLP256 T01000039 10100 20017 51010
KHAF - Half Moon Bay, California, USA
Distance from station: ONO 50km
Dati ricevuti: 23/01/2022 18:55
Sereno
Sereno
 Vento da calmo
Vento: Calma
Temperatura: 13°C
P.to Rugiada: 7°C
Umidità: 67%
Barometro: 1025.4 hPa
Nuvole: Sereno
Visibility: 11 km
2022/01/23 17:55 KHAF 231755Z AUTO 00000KT 7SM CLR 13/07 A3028 RMK AO2
 
KHWD - Hayward, California, USA
Distance from station: N 44km
Dati ricevuti: 23/01/2022 18:54
Sereno
Sereno
 Vento da calmo
Vento: Calma
Temperatura: 12°C
P.to Rugiada: 5°C
Umidità: 63%
Barometro: 1025.4 hPa
Nuvole: Sereno
Visibility: 13 km
2022/01/23 17:54 KHWD 231754Z 00000KT 8SM CLR 12/05 A3028 RMK AO2 SLP263 T01170050 10117 20044 51008
KLVK - Livermore, California, USA
Distance from station: NNE 51km
Dati ricevuti: 23/01/2022 18:53
Sereno
Sereno
 Vento da calmo
Vento: Calma
Temperatura: 7°C
P.to Rugiada: 2°C
Umidità: 71%
Barometro: 1026.1 hPa
Nuvole: Sereno
Visibility: 16 km
2022/01/23 17:53 KLVK 231753Z 00000KT 10SM CLR 07/02 A3030 RMK AO2 SLP259 T00720022 10072 20011 53008